Terminal Aerodrome Forecast
Issued by NWS

Home | Current Version | Previous Version | Text Only | Print | Product List | Glossary On
Versions: 1 2 3 4 5 6 7 8 9 10 11 12 13 14 15 16 17 18 19 20 21 22 23 24 25
000
FTUS41 KGYX 291202 AAA
TAFHIE
TAF AMD
KHIE 291202Z 2912/3012 00000KT P6SM BKN008
     FM291300 00000KT P6SM SKC
     FM291800 24003KT P6SM SCT250
     FM300300 00000KT P6SM OVC050
      TEMPO 3008/3012 3SM BR BKN010=

USA.gov is the U.S. government's official web portal to all federal, state and local government web resources and services.